createdAt,value
2023-01-03T00:00:01.450Z,0.00
2023-01-03T00:10:00.962Z,0.00
2023-01-03T00:30:02.217Z,0.00
2023-01-03T00:40:01.239Z,0.00
2023-01-03T00:50:01.431Z,0.00
2023-01-03T01:00:01.273Z,0.00
2023-01-03T01:10:01.389Z,0.00
2023-01-03T01:20:01.149Z,0.00
2023-01-03T01:30:01.473Z,0.00
2023-01-03T01:40:01.028Z,0.00
2023-01-03T01:50:01.132Z,0.00
2023-01-03T02:00:01.237Z,0.00
2023-01-03T02:10:01.659Z,0.00
2023-01-03T02:20:01.173Z,0.00
2023-01-03T02:30:01.036Z,0.00
2023-01-03T02:40:01.078Z,0.00
2023-01-03T02:50:01.160Z,0.00
2023-01-03T03:00:03.264Z,0.00
2023-01-03T03:10:01.275Z,0.00
2023-01-03T03:20:06.141Z,0.00
2023-01-03T03:30:01.207Z,0.00
2023-01-03T03:40:01.485Z,0.00
2023-01-03T03:50:01.197Z,0.00
2023-01-03T04:00:01.135Z,0.00
2023-01-03T04:10:01.975Z,0.00
2023-01-03T04:20:02.833Z,0.00
2023-01-03T04:30:02.066Z,0.00
2023-01-03T04:40:01.130Z,0.00
2023-01-03T04:50:00.979Z,0.00
2023-01-03T05:00:01.101Z,0.00
2023-01-03T05:10:01.262Z,0.00
2023-01-03T05:20:01.054Z,0.00
2023-01-03T05:30:01.038Z,0.00
2023-01-03T05:40:01.032Z,0.00
2023-01-03T05:50:01.182Z,0.00
2023-01-03T06:10:01.241Z,0.00
2023-01-03T06:20:01.264Z,0.00
2023-01-03T06:30:01.011Z,0.00
2023-01-03T06:40:01.281Z,0.57
2023-01-03T06:50:00.985Z,3.17
2023-01-03T07:00:01.310Z,5.00
2023-01-03T07:10:01.272Z,21.67
2023-01-03T07:20:01.034Z,61.67
2023-01-03T07:30:01.029Z,123.33
2023-01-03T07:40:01.284Z,427.92
2023-01-03T07:50:00.237Z,300.00
2023-01-03T08:00:01.065Z,761.25
2023-01-03T08:10:01.307Z,445.00
2023-01-03T08:20:01.304Z,506.67
2023-01-03T08:30:01.873Z,560.00
2023-01-03T08:40:01.058Z,1227.50
2023-01-03T08:50:01.079Z,658.33
2023-01-03T09:00:01.770Z,708.33
2023-01-03T09:10:01.064Z,760.00
2023-01-03T09:20:01.006Z,806.67
2023-01-03T09:30:00.912Z,856.67
2023-01-03T09:40:03.439Z,900.00
2023-01-03T10:00:03.323Z,2082.08
2023-01-03T10:10:00.190Z,1303.33
2023-01-03T10:20:03.077Z,2216.67
2023-01-03T10:30:01.339Z,4168.75
2023-01-03T10:40:01.562Z,1323.33
2023-01-03T10:50:01.908Z,2708.33
2023-01-03T11:00:02.681Z,2068.33
2023-01-03T11:10:00.990Z,5198.33
2023-01-03T11:20:02.333Z,3790.00
2023-01-03T11:30:01.317Z,2965.00
2023-01-03T11:40:01.011Z,2886.25
2023-01-03T11:50:00.982Z,4912.50
2023-01-03T12:00:01.056Z,4333.75
2023-01-03T12:10:01.058Z,1501.67
2023-01-03T12:20:01.898Z,1028.33
2023-01-03T12:30:02.219Z,1688.33
2023-01-03T12:40:01.209Z,6208.33
2023-01-03T12:50:01.339Z,12926.67
2023-01-03T13:00:02.018Z,1648.33
2023-01-03T13:10:01.318Z,1924.17
2023-01-03T13:20:03.399Z,4373.33
2023-01-03T13:30:01.251Z,4613.33
2023-01-03T13:40:01.145Z,8392.08
2023-01-03T13:50:03.024Z,3773.33
2023-01-03T14:00:01.156Z,2440.00
2023-01-03T14:10:01.074Z,3926.67
2023-01-03T14:20:01.123Z,1271.67
2023-01-03T14:30:01.231Z,780.00
2023-01-03T14:40:01.369Z,546.67
2023-01-03T14:50:01.488Z,298.33
2023-01-03T15:00:01.905Z,156.67
2023-01-03T15:10:02.872Z,160.00
2023-01-03T15:20:03.157Z,28.33
2023-01-03T15:30:02.669Z,6.67
2023-01-03T15:40:01.156Z,3.40
2023-01-03T15:50:02.377Z,0.68
2023-01-03T16:00:01.128Z,0.11
2023-01-03T16:10:02.804Z,0.00
2023-01-03T16:20:01.093Z,0.00
2023-01-03T16:30:01.436Z,0.00
2023-01-03T16:40:00.249Z,0.00
2023-01-03T16:50:01.564Z,0.00
2023-01-03T17:00:01.567Z,0.00
2023-01-03T17:10:02.112Z,0.00
2023-01-03T17:20:04.486Z,0.00
2023-01-03T17:30:01.577Z,0.00
2023-01-03T17:40:02.393Z,0.00
2023-01-03T17:50:01.242Z,0.00
2023-01-03T18:00:01.419Z,0.00
2023-01-03T18:10:03.323Z,0.00
2023-01-03T18:20:01.578Z,0.00
2023-01-03T18:30:01.899Z,0.00
2023-01-03T18:40:01.340Z,0.00
2023-01-03T18:50:01.464Z,0.00
2023-01-03T19:10:01.345Z,0.00
2023-01-03T19:20:01.106Z,0.00
2023-01-03T19:30:01.114Z,0.00
2023-01-03T19:40:01.015Z,0.00
2023-01-03T19:50:03.846Z,0.00
2023-01-03T20:00:03.393Z,0.00
2023-01-03T20:10:01.957Z,0.00
2023-01-03T20:20:02.443Z,0.00
2023-01-03T20:30:01.048Z,0.00
2023-01-03T20:40:01.908Z,0.00
2023-01-03T20:50:01.565Z,0.00
2023-01-03T21:00:01.268Z,0.00
2023-01-03T21:10:00.982Z,0.00
2023-01-03T21:20:01.595Z,0.00
2023-01-03T21:30:03.686Z,0.00
2023-01-03T21:40:01.543Z,0.00
2023-01-03T21:50:02.388Z,0.00
2023-01-03T22:00:01.252Z,0.00
2023-01-03T22:10:01.504Z,0.00
2023-01-03T22:20:01.135Z,0.00
2023-01-03T22:30:01.274Z,0.00
2023-01-03T22:40:02.015Z,0.00
2023-01-03T22:50:01.250Z,0.00
2023-01-03T23:00:01.073Z,0.00
2023-01-03T23:10:02.154Z,0.00
2023-01-03T23:20:02.538Z,0.00
2023-01-03T23:30:02.070Z,0.00
2023-01-03T23:50:02.123Z,0.00
